Time;durP1;ratioP1;P1;durP2;ratioP2;P2;SDS_P1;SDS_P2;PMS_P1;PMS_P2;Temp;Humidity;BMP_temperature;BMP_pressure;BME280_temperature;BME280_humidity;BME280_pressure;Samples;Min_cycle;Max_cycle;Signal;HPM_P1;HPM_P2
2023/06/19 00:02:01;;;;;;;9.45;7.55;;;;;;;;;;5088844;28;20298;-71
2023/06/19 00:04:26;;;;;;;8.38;7.57;;;;;;;;;;5089365;28;20232;-71
2023/06/19 00:06:52;;;;;;;8.35;7.55;;;;;;;;;;5083763;28;20509;-71
2023/06/19 00:09:18;;;;;;;11.55;7.97;;;;;;;;;;5080799;28;20739;-70
2023/06/19 00:11:44;;;;;;;12.57;7.63;;;;;;;;;;5060509;28;20212;-71
2023/06/19 00:14:09;;;;;;;9.35;7.85;;;;;;;;;;5072815;28;20343;-72
2023/06/19 00:16:35;;;;;;;9.10;8.20;;;;;;;;;;5082642;28;20189;-70
2023/06/19 00:19:03;;;;;;;10.63;7.63;;;;;;;;;;5078169;28;20204;-70
2023/06/19 00:21:29;;;;;;;8.57;7.68;;;;;;;;;;5085690;28;20271;-70
2023/06/19 00:23:54;;;;;;;10.48;7.55;;;;;;;;;;5084328;28;20201;-70
2023/06/19 00:26:25;;;;;;;8.27;7.57;;;;;;;;;;5076757;28;20204;-70
2023/06/19 00:28:50;;;;;;;15.38;7.85;;;;;;;;;;5087682;28;20194;-71
2023/06/19 00:31:16;;;;;;;8.77;7.63;;;;;;;;;;5083192;28;20189;-70
2023/06/19 00:33:43;;;;;;;9.98;8.02;;;;;;;;;;5077399;28;20659;-71
2023/06/19 00:36:12;;;;;;;9.07;7.97;;;;;;;;;;5089414;28;20263;-71
2023/06/19 00:38:38;;;;;;;8.82;7.78;;;;;;;;;;5082842;28;20200;-71
2023/06/19 00:41:05;;;;;;;9.05;8.15;;;;;;;;;;5072013;28;20211;-71
2023/06/19 00:43:31;;;;;;;8.65;7.68;;;;;;;;;;5083845;28;20192;-72
2023/06/19 00:45:58;;;;;;;9.57;8.02;;;;;;;;;;5088886;28;20675;-71
2023/06/19 00:48:23;;;;;;;10.70;7.43;;;;;;;;;;5081556;28;20316;-71
2023/06/19 00:50:50;;;;;;;9.23;7.90;;;;;;;;;;5082148;28;20191;-71
2023/06/19 00:53:15;;;;;;;10.35;8.63;;;;;;;;;;5082330;28;20215;-71
2023/06/19 00:55:43;;;;;;;8.60;7.50;;;;;;;;;;5081417;28;20219;-71
2023/06/19 00:58:08;;;;;;;11.18;8.07;;;;;;;;;;5078469;28;20188;-71
2023/06/19 01:00:34;;;;;;;9.15;7.97;;;;;;;;;;5071072;28;20212;-71
2023/06/19 01:02:59;;;;;;;8.88;7.93;;;;;;;;;;5081021;28;20196;-71
2023/06/19 01:05:25;;;;;;;11.05;7.40;;;;;;;;;;5086002;28;20215;-71
2023/06/19 01:08:10;;;;;;;8.38;7.57;;;;;;;;;;5082124;28;20227;-71
2023/06/19 01:10:43;;;;;;;8.40;7.50;;;;;;;;;;5111593;27;20185;-71
2023/06/19 01:13:25;;;;;;;9.93;7.82;;;;;;;;;;5082358;28;20541;-72
2023/06/19 01:15:51;;;;;;;8.95;7.82;;;;;;;;;;5082248;28;20683;-71
2023/06/19 01:18:17;;;;;;;8.80;7.70;;;;;;;;;;5075294;28;20559;-71
2023/06/19 01:20:43;;;;;;;8.18;7.30;;;;;;;;;;5084220;28;20275;-72
2023/06/19 01:23:10;;;;;;;11.77;7.60;;;;;;;;;;5087387;28;20290;-72
2023/06/19 01:25:35;;;;;;;8.25;7.45;;;;;;;;;;5083254;28;20247;-72
2023/06/19 01:28:07;;;;;;;7.97;7.18;;;;;;;;;;5083981;28;20275;-72
2023/06/19 01:30:34;;;;;;;9.73;7.28;;;;;;;;;;5087646;28;20191;-71
2023/06/19 01:33:06;;;;;;;8.00;6.82;;;;;;;;;;5088304;28;20199;-72
2023/06/19 01:35:36;;;;;;;8.18;7.32;;;;;;;;;;5079924;28;20414;-72
2023/06/19 01:38:02;;;;;;;8.95;7.35;;;;;;;;;;5085175;28;20566;-72
2023/06/19 01:40:31;;;;;;;7.47;6.60;;;;;;;;;;5078783;28;20293;-72
2023/06/19 01:42:59;;;;;;;8.05;7.25;;;;;;;;;;5068932;28;20313;-72
2023/06/19 01:45:24;;;;;;;9.55;6.80;;;;;;;;;;5079251;28;20547;-72
2023/06/19 01:47:50;;;;;;;8.93;6.65;;;;;;;;;;5087328;28;20199;-72
2023/06/19 01:50:15;;;;;;;11.35;7.10;;;;;;;;;;5082578;28;20188;-72
2023/06/19 01:52:41;;;;;;;7.35;6.50;;;;;;;;;;5069769;28;20184;-70
2023/06/19 01:55:07;;;;;;;7.50;6.60;;;;;;;;;;5075829;28;20261;-71
2023/06/19 01:57:32;;;;;;;7.95;6.40;;;;;;;;;;5087578;28;20555;-71
2023/06/19 01:59:58;;;;;;;6.35;5.75;;;;;;;;;;5084266;28;20655;-71
2023/06/19 02:02:23;;;;;;;9.68;6.05;;;;;;;;;;5075681;28;20214;-71
2023/06/19 02:04:49;;;;;;;8.70;6.30;;;;;;;;;;5087122;28;20208;-72
2023/06/19 02:07:14;;;;;;;7.07;5.97;;;;;;;;;;5087080;28;20226;-72
2023/06/19 02:09:41;;;;;;;7.05;5.85;;;;;;;;;;5076624;28;20202;-70
2023/06/19 02:12:07;;;;;;;9.10;6.28;;;;;;;;;;5081240;28;20612;-70
2023/06/19 02:14:32;;;;;;;6.53;5.78;;;;;;;;;;5079060;28;20197;-71
2023/06/19 02:16:58;;;;;;;5.72;5.18;;;;;;;;;;5080848;28;20188;-72
2023/06/19 02:19:23;;;;;;;7.18;6.22;;;;;;;;;;5086361;28;20550;-71
2023/06/19 02:21:48;;;;;;;6.80;5.85;;;;;;;;;;5075610;28;20247;-70
2023/06/19 02:24:14;;;;;;;7.35;6.07;;;;;;;;;;5078033;28;20196;-70
2023/06/19 02:26:39;;;;;;;6.65;5.75;;;;;;;;;;5087782;28;20216;-71
2023/06/19 02:29:05;;;;;;;10.25;6.10;;;;;;;;;;5086629;28;20671;-71
2023/06/19 02:31:30;;;;;;;6.88;5.80;;;;;;;;;;5080337;28;20201;-71
2023/06/19 02:33:55;;;;;;;7.63;6.15;;;;;;;;;;5087256;28;20188;-70
2023/06/19 02:36:21;;;;;;;10.95;5.78;;;;;;;;;;5081561;28;20555;-71
2023/06/19 02:38:47;;;;;;;6.57;5.90;;;;;;;;;;5070584;28;20227;-71
2023/06/19 02:41:13;;;;;;;7.10;5.85;;;;;;;;;;5073961;28;20524;-72
2023/06/19 02:43:40;;;;;;;7.40;5.25;;;;;;;;;;5083233;28;20187;-71
2023/06/19 02:46:06;;;;;;;7.53;5.97;;;;;;;;;;5087446;28;20277;-71
2023/06/19 02:48:31;;;;;;;7.20;5.80;;;;;;;;;;5077198;28;20196;-71
2023/06/19 02:50:56;;;;;;;6.78;6.07;;;;;;;;;;5088435;28;20670;-71
2023/06/19 02:53:22;;;;;;;10.07;6.00;;;;;;;;;;5087507;28;20606;-71
2023/06/19 02:55:47;;;;;;;6.63;5.93;;;;;;;;;;5084831;28;20204;-70
2023/06/19 02:58:12;;;;;;;8.45;5.95;;;;;;;;;;5085708;28;20195;-70
2023/06/19 03:00:38;;;;;;;9.23;5.80;;;;;;;;;;5084338;28;20232;-71
2023/06/19 03:03:03;;;;;;;7.63;6.00;;;;;;;;;;5088082;28;20646;-71
2023/06/19 03:05:28;;;;;;;6.88;6.03;;;;;;;;;;5083364;28;20428;-71
2023/06/19 03:07:54;;;;;;;8.60;6.15;;;;;;;;;;5089639;28;20272;-71
2023/06/19 03:10:19;;;;;;;8.90;6.35;;;;;;;;;;5084271;28;20187;-71
2023/06/19 03:12:45;;;;;;;7.72;5.90;;;;;;;;;;5070922;28;20193;-71
2023/06/19 03:15:10;;;;;;;6.65;5.95;;;;;;;;;;5082432;28;20554;-72
2023/06/19 03:17:36;;;;;;;6.93;6.22;;;;;;;;;;5083526;28;20696;-73
2023/06/19 03:20:02;;;;;;;9.35;6.40;;;;;;;;;;5079328;28;20230;-73
2023/06/19 03:22:27;;;;;;;7.88;5.90;;;;;;;;;;5077281;28;20241;-69
2023/06/19 03:24:52;;;;;;;7.97;6.35;;;;;;;;;;5088190;28;20203;-71
2023/06/19 03:27:18;;;;;;;6.70;6.00;;;;;;;;;;5087588;28;20215;-70
2023/06/19 03:29:43;;;;;;;8.32;6.45;;;;;;;;;;5077381;28;20183;-70
2023/06/19 03:32:09;;;;;;;14.85;6.30;;;;;;;;;;5087499;28;20468;-71
2023/06/19 03:34:34;;;;;;;7.88;6.20;;;;;;;;;;5076480;28;20600;-70
2023/06/19 03:37:00;;;;;;;7.63;6.25;;;;;;;;;;5078385;28;20590;-71
2023/06/19 03:39:25;;;;;;;6.97;6.15;;;;;;;;;;5086235;28;20224;-70
2023/06/19 03:41:51;;;;;;;6.95;5.65;;;;;;;;;;5070521;28;20495;-70
2023/06/19 03:44:16;;;;;;;7.45;6.55;;;;;;;;;;5071845;28;20207;-72
2023/06/19 03:46:42;;;;;;;7.60;5.80;;;;;;;;;;5080137;28;20204;-72
2023/06/19 03:49:09;;;;;;;6.80;5.32;;;;;;;;;;5079305;28;20188;-70
2023/06/19 03:51:34;;;;;;;8.30;5.55;;;;;;;;;;5087039;28;20330;-69
2023/06/19 03:54:00;;;;;;;7.35;5.78;;;;;;;;;;5068950;28;20279;-70
2023/06/19 03:56:25;;;;;;;7.20;5.72;;;;;;;;;;5087451;28;20215;-70
2023/06/19 03:58:50;;;;;;;9.07;5.35;;;;;;;;;;5084922;28;20199;-69
2023/06/19 04:01:16;;;;;;;6.88;5.22;;;;;;;;;;5081104;28;20212;-71
2023/06/19 04:03:41;;;;;;;5.53;4.93;;;;;;;;;;5083027;28;20229;-71
2023/06/19 04:06:06;;;;;;;7.32;4.90;;;;;;;;;;5067879;28;20342;-71
2023/06/19 04:08:33;;;;;;;6.75;4.60;;;;;;;;;;5089046;28;20192;-71
2023/06/19 04:10:58;;;;;;;8.38;4.95;;;;;;;;;;5081605;28;20184;-71
2023/06/19 04:13:25;;;;;;;10.23;4.55;;;;;;;;;;5081418;28;20765;-70
2023/06/19 04:15:51;;;;;;;6.35;5.28;;;;;;;;;;5075186;28;20180;-71
2023/06/19 04:18:16;;;;;;;5.65;4.55;;;;;;;;;;5083602;28;20214;-71
2023/06/19 04:20:42;;;;;;;5.72;4.95;;;;;;;;;;5086571;28;20173;-71
2023/06/19 04:23:07;;;;;;;6.00;4.78;;;;;;;;;;5090337;28;20216;-70
2023/06/19 04:25:33;;;;;;;4.95;4.30;;;;;;;;;;5086833;28;20204;-71
2023/06/19 04:27:58;;;;;;;6.85;4.80;;;;;;;;;;5089040;28;20239;-70
2023/06/19 04:30:24;;;;;;;6.20;4.38;;;;;;;;;;5084298;28;20197;-70
2023/06/19 04:32:49;;;;;;;4.78;4.03;;;;;;;;;;5080784;28;20216;-70
2023/06/19 04:35:14;;;;;;;6.85;4.10;;;;;;;;;;5088508;28;20296;-70
2023/06/19 04:37:40;;;;;;;5.28;3.83;;;;;;;;;;5088506;28;20222;-70
2023/06/19 04:40:07;;;;;;;7.53;3.47;;;;;;;;;;5084493;28;20228;-70
2023/06/19 04:42:33;;;;;;;6.57;3.80;;;;;;;;;;5075069;28;20196;-71
2023/06/19 04:44:59;;;;;;;3.53;3.20;;;;;;;;;;5088564;28;20816;-71
2023/06/19 04:47:24;;;;;;;4.97;3.78;;;;;;;;;;5088476;28;20291;-71
2023/06/19 04:49:50;;;;;;;5.05;3.80;;;;;;;;;;5085132;28;20782;-71
2023/06/19 04:52:15;;;;;;;6.05;4.03;;;;;;;;;;5083026;28;20589;-70
2023/06/19 04:54:40;;;;;;;6.80;4.00;;;;;;;;;;5080839;28;20260;-71
2023/06/19 04:57:06;;;;;;;7.25;4.03;;;;;;;;;;5082432;28;20195;-70
2023/06/19 04:59:32;;;;;;;6.32;4.35;;;;;;;;;;5082511;28;20237;-70
2023/06/19 05:01:57;;;;;;;6.10;4.15;;;;;;;;;;5079229;28;20623;-71
2023/06/19 05:04:23;;;;;;;4.63;3.92;;;;;;;;;;5078210;28;20172;-69
2023/06/19 05:06:49;;;;;;;5.20;3.67;;;;;;;;;;5081675;28;20204;-69
2023/06/19 05:09:14;;;;;;;4.50;4.10;;;;;;;;;;5081635;28;20542;-71
2023/06/19 05:11:40;;;;;;;4.30;3.90;;;;;;;;;;5075205;28;20192;-67
2023/06/19 05:14:05;;;;;;;6.03;3.78;;;;;;;;;;5069066;28;20188;-71
2023/06/19 05:16:31;;;;;;;7.15;3.63;;;;;;;;;;5073172;28;20188;-67
2023/06/19 05:18:56;;;;;;;6.13;3.53;;;;;;;;;;5071439;28;20206;-71
2023/06/19 05:21:21;;;;;;;4.95;3.45;;;;;;;;;;5076745;28;20189;-70
2023/06/19 05:23:50;;;;;;;7.47;3.80;;;;;;;;;;5077519;28;20266;-69
2023/06/19 05:26:19;;;;;;;6.57;3.40;;;;;;;;;;5083526;28;20210;-70
2023/06/19 05:28:45;;;;;;;5.65;4.03;;;;;;;;;;5083440;28;20192;-71
2023/06/19 05:31:10;;;;;;;4.55;3.35;;;;;;;;;;5086153;28;20607;-70
2023/06/19 05:33:36;;;;;;;6.55;3.90;;;;;;;;;;5084631;28;20551;-71
2023/06/19 05:36:01;;;;;;;6.38;4.53;;;;;;;;;;5080188;28;20191;-71
2023/06/19 05:38:28;;;;;;;4.80;3.63;;;;;;;;;;5071240;28;20258;-70
2023/06/19 05:40:53;;;;;;;4.65;3.78;;;;;;;;;;5086699;28;20263;-72
2023/06/19 05:43:19;;;;;;;4.60;3.80;;;;;;;;;;5071774;28;20280;-74
2023/06/19 05:45:44;;;;;;;6.68;3.72;;;;;;;;;;5074891;28;20211;-72
2023/06/19 05:48:09;;;;;;;5.70;3.92;;;;;;;;;;5073021;28;20219;-71
2023/06/19 05:50:35;;;;;;;4.38;3.80;;;;;;;;;;5075886;28;20231;-70
2023/06/19 05:53:00;;;;;;;7.53;3.40;;;;;;;;;;5070326;28;20209;-70
2023/06/19 05:55:27;;;;;;;4.88;3.75;;;;;;;;;;5077915;28;20200;-70
2023/06/19 05:57:53;;;;;;;6.40;4.10;;;;;;;;;;5068063;28;20191;-69
2023/06/19 06:00:19;;;;;;;6.55;4.18;;;;;;;;;;5083727;28;20224;-69
2023/06/19 06:02:44;;;;;;;6.80;4.72;;;;;;;;;;5081609;28;20243;-71
2023/06/19 06:05:10;;;;;;;7.07;4.88;;;;;;;;;;5083139;28;20241;-71
2023/06/19 06:07:35;;;;;;;5.32;3.78;;;;;;;;;;5074224;28;20212;-72
2023/06/19 06:10:01;;;;;;;7.57;4.18;;;;;;;;;;5078001;28;20319;-71
2023/06/19 06:12:26;;;;;;;5.40;4.32;;;;;;;;;;5079524;28;20192;-72
2023/06/19 06:14:52;;;;;;;5.47;4.47;;;;;;;;;;5073446;28;20204;-70
2023/06/19 06:17:17;;;;;;;6.57;4.15;;;;;;;;;;5073006;28;20185;-71
2023/06/19 06:19:42;;;;;;;5.65;4.63;;;;;;;;;;5072286;28;20188;-72
2023/06/19 06:22:08;;;;;;;5.28;3.90;;;;;;;;;;5073217;28;20919;-72
2023/06/19 06:24:33;;;;;;;5.28;4.78;;;;;;;;;;5085620;28;20204;-69
2023/06/19 06:26:58;;;;;;;6.47;5.07;;;;;;;;;;5089962;28;20199;-72
2023/06/19 06:29:24;;;;;;;7.03;4.55;;;;;;;;;;5075023;28;20283;-69
2023/06/19 06:31:52;;;;;;;6.47;5.10;;;;;;;;;;5080924;28;20233;-72
2023/06/19 06:34:19;;;;;;;5.45;4.30;;;;;;;;;;5082130;28;20552;-71
2023/06/19 06:36:44;;;;;;;5.57;4.32;;;;;;;;;;5075747;28;20188;-69
2023/06/19 06:39:10;;;;;;;5.85;4.78;;;;;;;;;;5079919;28;20224;-72
2023/06/19 06:41:36;;;;;;;6.30;5.18;;;;;;;;;;5081228;28;20199;-71
2023/06/19 06:44:01;;;;;;;8.25;5.30;;;;;;;;;;5086639;28;20192;-72
2023/06/19 06:46:26;;;;;;;5.78;4.65;;;;;;;;;;5078969;28;20203;-71
2023/06/19 06:48:52;;;;;;;9.13;4.82;;;;;;;;;;5074996;28;20199;-71
2023/06/19 06:51:17;;;;;;;6.45;5.47;;;;;;;;;;5080009;28;20203;-67
2023/06/19 06:53:43;;;;;;;6.15;5.55;;;;;;;;;;5082724;28;20667;-69
2023/06/19 06:56:08;;;;;;;6.45;5.28;;;;;;;;;;5088871;28;20180;-70
2023/06/19 06:58:33;;;;;;;10.38;5.47;;;;;;;;;;5072602;28;20234;-72
2023/06/19 07:00:59;;;;;;;7.97;6.15;;;;;;;;;;5087012;28;20208;-70
2023/06/19 07:03:24;;;;;;;7.10;5.47;;;;;;;;;;5087233;28;20192;-71
2023/06/19 07:05:50;;;;;;;8.55;6.15;;;;;;;;;;5088759;28;20393;-72
2023/06/19 07:08:16;;;;;;;7.72;6.35;;;;;;;;;;5087928;28;20196;-71
2023/06/19 07:10:41;;;;;;;6.45;5.43;;;;;;;;;;5072705;28;20220;-70
2023/06/19 07:13:06;;;;;;;9.13;6.43;;;;;;;;;;5079173;28;20192;-72
2023/06/19 07:15:32;;;;;;;8.00;6.07;;;;;;;;;;5082119;28;20176;-72
2023/06/19 07:17:57;;;;;;;10.32;6.50;;;;;;;;;;5080057;28;20681;-74
2023/06/19 07:20:23;;;;;;;9.13;6.80;;;;;;;;;;5085780;28;20743;-72
2023/06/19 07:22:51;;;;;;;9.57;6.78;;;;;;;;;;5088455;28;20193;-71
2023/06/19 07:25:16;;;;;;;9.68;5.70;;;;;;;;;;5083759;28;20276;-73
2023/06/19 07:27:42;;;;;;;9.07;6.10;;;;;;;;;;5084543;28;20769;-72
2023/06/19 07:30:08;;;;;;;7.82;5.53;;;;;;;;;;5080131;28;20196;-73
2023/06/19 07:32:33;;;;;;;8.73;6.30;;;;;;;;;;5084259;28;20193;-71
2023/06/19 07:34:59;;;;;;;10.35;6.40;;;;;;;;;;5080875;28;20200;-69
2023/06/19 07:37:24;;;;;;;13.32;5.72;;;;;;;;;;5079149;28;20258;-74
2023/06/19 07:39:51;;;;;;;7.32;5.60;;;;;;;;;;5079256;28;20222;-70
2023/06/19 07:42:18;;;;;;;6.55;5.45;;;;;;;;;;5085975;28;20223;-72
2023/06/19 07:44:44;;;;;;;6.93;5.55;;;;;;;;;;5069868;28;20616;-71
2023/06/19 07:47:10;;;;;;;7.10;5.10;;;;;;;;;;5075649;28;20621;-70
2023/06/19 07:49:36;;;;;;;8.90;5.88;;;;;;;;;;5072761;28;20624;-70
2023/06/19 07:52:02;;;;;;;8.48;6.57;;;;;;;;;;5085077;28;20196;-71
2023/06/19 07:54:27;;;;;;;7.30;5.75;;;;;;;;;;5075394;28;20214;-70
2023/06/19 07:56:53;;;;;;;7.00;6.18;;;;;;;;;;5068974;28;20501;-72
2023/06/19 07:59:18;;;;;;;9.63;6.57;;;;;;;;;;5069242;28;20197;-71
2023/06/19 08:01:44;;;;;;;6.85;6.10;;;;;;;;;;5080473;28;20839;-73
2023/06/19 08:04:09;;;;;;;7.80;5.72;;;;;;;;;;5068395;28;20212;-72
2023/06/19 08:06:35;;;;;;;6.32;5.72;;;;;;;;;;5070963;28;20200;-72
2023/06/19 08:09:00;;;;;;;8.27;6.10;;;;;;;;;;5069553;28;20224;-71
2023/06/19 08:11:26;;;;;;;6.63;5.97;;;;;;;;;;5071845;28;20224;-72
2023/06/19 08:13:51;;;;;;;7.38;6.65;;;;;;;;;;5072343;28;20276;-71
2023/06/19 08:16:17;;;;;;;8.23;5.95;;;;;;;;;;5069452;28;20277;-70
2023/06/19 08:18:44;;;;;;;7.22;5.47;;;;;;;;;;5082645;28;20191;-73
2023/06/19 08:21:09;;;;;;;6.78;6.07;;;;;;;;;;5070036;28;20319;-72
2023/06/19 08:23:35;;;;;;;9.73;6.78;;;;;;;;;;5070274;28;20220;-72
2023/06/19 08:26:00;;;;;;;8.85;7.43;;;;;;;;;;5081538;28;20213;-72
2023/06/19 08:28:25;;;;;;;10.02;7.10;;;;;;;;;;5077799;28;20185;-72
2023/06/19 08:30:51;;;;;;;9.32;8.43;;;;;;;;;;5073841;28;20233;-70
2023/06/19 08:33:17;;;;;;;8.93;8.00;;;;;;;;;;5070709;28;20590;-72
2023/06/19 08:35:44;;;;;;;9.15;8.18;;;;;;;;;;5081256;28;20652;-72
2023/06/19 08:38:09;;;;;;;11.95;7.80;;;;;;;;;;5084001;28;20188;-72
2023/06/19 08:40:35;;;;;;;10.20;7.47;;;;;;;;;;5072900;28;20232;-72
2023/06/19 08:43:00;;;;;;;8.23;7.18;;;;;;;;;;5077686;28;20555;-72
2023/06/19 08:45:27;;;;;;;9.02;8.13;;;;;;;;;;5079511;28;20557;-72
2023/06/19 08:48:00;;;;;;;9.23;7.60;;;;;;;;;;5083195;28;20242;-71
2023/06/19 08:50:26;;;;;;;10.02;8.20;;;;;;;;;;5075937;28;20246;-69
2023/06/19 08:52:51;;;;;;;9.23;8.32;;;;;;;;;;5076344;28;20667;-71
2023/06/19 08:55:16;;;;;;;7.43;6.80;;;;;;;;;;5069398;28;20207;-72
2023/06/19 08:57:42;;;;;;;9.88;8.10;;;;;;;;;;5071015;28;20223;-71
2023/06/19 09:00:10;;;;;;;10.82;8.13;;;;;;;;;;5068723;28;20197;-70
2023/06/19 09:02:44;;;;;;;7.07;6.38;;;;;;;;;;5071023;28;20220;-70
2023/06/19 09:05:15;;;;;;;7.13;6.43;;;;;;;;;;5082605;28;20187;-67
2023/06/19 09:07:40;;;;;;;7.63;6.80;;;;;;;;;;5079824;28;20211;-71
2023/06/19 09:10:18;;;;;;;8.63;6.78;;;;;;;;;;5075950;28;20685;-71
2023/06/19 09:12:44;;;;;;;8.15;6.43;;;;;;;;;;5079666;28;20196;-71
2023/06/19 09:15:14;;;;;;;7.20;6.50;;;;;;;;;;5080604;28;20257;-71
2023/06/19 09:17:40;;;;;;;9.35;6.85;;;;;;;;;;5080056;28;20303;-70
2023/06/19 09:20:07;;;;;;;7.38;6.30;;;;;;;;;;5071764;28;20643;-71
2023/06/19 09:22:32;;;;;;;8.13;6.22;;;;;;;;;;5075212;28;20196;-72
2023/06/19 09:25:02;;;;;;;5.97;5.38;;;;;;;;;;5082191;28;20266;-72
2023/06/19 09:27:32;;;;;;;7.60;5.65;;;;;;;;;;5073551;28;20232;-71
2023/06/19 09:29:58;;;;;;;7.45;6.00;;;;;;;;;;5068252;28;20682;-72
2023/06/19 09:32:25;;;;;;;6.72;6.00;;;;;;;;;;5077732;28;20188;-70
2023/06/19 09:34:58;;;;;;;7.00;5.93;;;;;;;;;;5072726;28;20188;-70
2023/06/19 09:37:25;;;;;;;10.63;5.60;;;;;;;;;;5062716;28;20238;-70
2023/06/19 09:39:57;;;;;;;6.25;5.45;;;;;;;;;;5068651;28;20224;-71
2023/06/19 09:42:33;;;;;;;5.43;4.85;;;;;;;;;;5076592;28;20195;-71
2023/06/19 09:45:07;;;;;;;6.15;5.55;;;;;;;;;;5078802;28;20216;-71
2023/06/19 09:47:44;;;;;;;6.82;5.55;;;;;;;;;;5082225;28;20698;-72
2023/06/19 09:50:12;;;;;;;6.72;5.57;;;;;;;;;;5079838;28;20187;-71
2023/06/19 09:52:40;;;;;;;9.30;6.35;;;;;;;;;;5088651;28;20198;-71
2023/06/19 09:55:08;;;;;;;8.15;5.82;;;;;;;;;;5081290;28;20270;-72
2023/06/19 09:57:34;;;;;;;7.88;5.90;;;;;;;;;;5074109;28;20177;-71
2023/06/19 10:00:09;;;;;;;5.85;5.25;;;;;;;;;;5081087;28;20682;-72
2023/06/19 10:02:35;;;;;;;8.25;5.63;;;;;;;;;;5081019;28;20246;-72
2023/06/19 10:05:00;;;;;;;6.68;5.28;;;;;;;;;;5074206;28;20176;-72
2023/06/19 10:07:33;;;;;;;5.53;4.60;;;;;;;;;;5085964;28;20211;-73
2023/06/19 10:10:06;;;;;;;6.38;5.47;;;;;;;;;;5074452;28;20268;-71
2023/06/19 10:12:39;;;;;;;6.90;6.15;;;;;;;;;;5082590;28;20228;-71
2023/06/19 10:15:11;;;;;;;6.45;5.85;;;;;;;;;;5086583;28;20194;-71
2023/06/19 10:17:37;;;;;;;6.95;5.88;;;;;;;;;;5072116;28;20185;-72
2023/06/19 10:20:03;;;;;;;11.38;7.68;;;;;;;;;;5076946;28;20685;-72
2023/06/19 10:22:32;;;;;;;8.65;6.50;;;;;;;;;;5073005;28;20185;-72
2023/06/19 10:24:58;;;;;;;8.57;7.68;;;;;;;;;;5068336;28;20574;-71
2023/06/19 10:27:25;;;;;;;12.02;7.47;;;;;;;;;;5069976;28;20209;-72
2023/06/19 10:29:54;;;;;;;9.90;7.45;;;;;;;;;;5069902;28;20185;-71
2023/06/19 10:32:20;;;;;;;8.88;8.02;;;;;;;;;;5072402;28;20191;-73
2023/06/19 10:34:47;;;;;;;9.82;8.82;;;;;;;;;;5076057;28;20192;-71
2023/06/19 10:37:12;;;;;;;10.60;7.50;;;;;;;;;;5077523;28;20212;-72
2023/06/19 10:39:38;;;;;;;8.48;7.65;;;;;;;;;;5068834;28;20216;-73
2023/06/19 10:42:08;;;;;;;10.85;8.10;;;;;;;;;;5070390;28;20192;-68
2023/06/19 10:44:33;;;;;;;13.38;8.82;;;;;;;;;;5079960;28;20265;-72
2023/06/19 10:46:59;;;;;;;13.20;9.55;;;;;;;;;;5081853;28;20735;-72
2023/06/19 10:49:24;;;;;;;9.55;8.55;;;;;;;;;;5081355;28;20560;-72
2023/06/19 10:51:50;;;;;;;9.77;8.88;;;;;;;;;;5082237;28;20592;-72
2023/06/19 10:54:16;;;;;;;9.70;7.93;;;;;;;;;;5087796;28;20553;-72
2023/06/19 10:56:43;;;;;;;8.82;7.93;;;;;;;;;;5075234;28;20703;-70
2023/06/19 10:59:11;;;;;;;11.90;8.88;;;;;;;;;;5086664;28;20273;-72
2023/06/19 11:01:40;;;;;;;12.43;9.15;;;;;;;;;;5086084;28;20214;-73
2023/06/19 11:04:10;;;;;;;10.00;9.00;;;;;;;;;;5075090;28;20654;-71
2023/06/19 11:06:37;;;;;;;11.07;9.10;;;;;;;;;;5080547;28;20211;-70
2023/06/19 11:09:04;;;;;;;10.43;8.85;;;;;;;;;;5078909;28;20181;-71
2023/06/19 11:11:46;;;;;;;11.43;8.27;;;;;;;;;;5076000;28;20505;-72
2023/06/19 11:14:12;;;;;;;10.43;9.02;;;;;;;;;;5100281;28;20188;-71
2023/06/19 11:16:41;;;;;;;11.00;9.82;;;;;;;;;;5077529;28;20188;-71
2023/06/19 11:19:08;;;;;;;10.60;9.38;;;;;;;;;;5074495;28;20187;-73
2023/06/19 11:21:38;;;;;;;11.68;9.40;;;;;;;;;;5090514;28;20562;-72
2023/06/19 11:24:09;;;;;;;10.30;8.25;;;;;;;;;;5089257;28;20180;-72
2023/06/19 11:26:38;;;;;;;10.45;8.68;;;;;;;;;;5079676;28;20208;-72
2023/06/19 11:29:15;;;;;;;12.23;9.93;;;;;;;;;;5086877;28;20209;-72
2023/06/19 11:31:40;;;;;;;11.25;9.52;;;;;;;;;;5079646;28;20600;-72
2023/06/19 11:34:06;;;;;;;15.48;9.48;;;;;;;;;;5081997;28;20185;-70
2023/06/19 11:36:31;;;;;;;11.57;10.38;;;;;;;;;;5078871;28;20215;-71
2023/06/19 11:38:57;;;;;;;9.63;8.73;;;;;;;;;;5090071;28;20227;-72
2023/06/19 11:41:28;;;;;;;10.32;9.25;;;;;;;;;;5083482;28;20197;-72
2023/06/19 11:44:05;;;;;;;12.30;10.10;;;;;;;;;;5071207;28;20469;-72
2023/06/19 11:46:32;;;;;;;9.98;8.90;;;;;;;;;;5077066;28;20195;-68
2023/06/19 11:49:20;;;;;;;10.30;9.00;;;;;;;;;;5088830;28;20192;-72
2023/06/19 11:51:45;;;;;;;9.60;8.45;;;;;;;;;;5083838;28;20652;-71
2023/06/19 11:54:14;;;;;;;9.35;8.35;;;;;;;;;;5086786;28;20198;-71
2023/06/19 11:56:40;;;;;;;10.90;9.80;;;;;;;;;;5072255;28;20180;-72
2023/06/19 11:59:06;;;;;;;11.85;9.55;;;;;;;;;;5087847;28;20282;-72
2023/06/19 12:01:32;;;;;;;9.70;8.75;;;;;;;;;;5088789;28;20291;-72
2023/06/19 12:03:58;;;;;;;10.55;9.38;;;;;;;;;;5081841;28;20237;-71
2023/06/19 12:06:24;;;;;;;12.18;9.73;;;;;;;;;;5090557;28;20200;-71
2023/06/19 12:08:49;;;;;;;10.75;8.60;;;;;;;;;;5087378;28;20188;-74
2023/06/19 12:11:15;;;;;;;9.05;8.07;;;;;;;;;;5082531;28;20533;-71
2023/06/19 12:13:41;;;;;;;9.98;8.30;;;;;;;;;;5082188;28;20196;-71
2023/06/19 12:16:09;;;;;;;8.85;7.95;;;;;;;;;;5079310;28;20657;-70
2023/06/19 12:18:34;;;;;;;10.77;8.68;;;;;;;;;;5085017;28;20196;-71
2023/06/19 12:21:00;;;;;;;9.65;8.60;;;;;;;;;;5080141;28;20196;-71
2023/06/19 12:23:25;;;;;;;10.10;9.10;;;;;;;;;;5079098;28;20584;-70
2023/06/19 12:25:50;;;;;;;9.70;8.70;;;;;;;;;;5069387;28;20273;-71
2023/06/19 12:28:18;;;;;;;10.90;8.90;;;;;;;;;;5075631;28;20655;-71
2023/06/19 12:30:48;;;;;;;13.00;9.15;;;;;;;;;;5076502;28;20198;-70
2023/06/19 12:33:13;;;;;;;9.50;8.52;;;;;;;;;;5073344;28;20314;-71
2023/06/19 12:35:40;;;;;;;10.35;9.32;;;;;;;;;;5074791;28;20279;-72
2023/06/19 12:38:06;;;;;;;10.82;9.25;;;;;;;;;;5076436;28;20303;-71
2023/06/19 12:40:32;;;;;;;14.65;10.75;;;;;;;;;;5078545;28;20377;-71
2023/06/19 12:42:57;;;;;;;10.23;9.23;;;;;;;;;;5067645;28;20679;-72
2023/06/19 12:45:23;;;;;;;12.85;10.10;;;;;;;;;;5069267;28;20193;-71
2023/06/19 12:47:48;;;;;;;15.02;10.85;;;;;;;;;;5073969;28;20689;-71
2023/06/19 12:50:13;;;;;;;12.25;11.05;;;;;;;;;;5083758;28;20196;-70
2023/06/19 12:52:39;;;;;;;15.43;9.52;;;;;;;;;;5076776;28;20281;-71
2023/06/19 12:55:04;;;;;;;10.68;9.68;;;;;;;;;;5082069;28;20201;-71
2023/06/19 12:57:30;;;;;;;15.20;10.90;;;;;;;;;;5066130;28;20189;-71
2023/06/19 12:59:55;;;;;;;12.68;11.38;;;;;;;;;;5075562;28;20518;-71
2023/06/19 13:02:21;;;;;;;12.32;10.80;;;;;;;;;;5081393;28;20696;-71
2023/06/19 13:04:46;;;;;;;10.55;9.55;;;;;;;;;;5082959;28;20192;-71
2023/06/19 13:07:12;;;;;;;12.40;9.30;;;;;;;;;;5068836;28;20224;-70
2023/06/19 13:09:38;;;;;;;13.32;9.32;;;;;;;;;;5082121;28;20200;-72
2023/06/19 13:12:03;;;;;;;11.77;9.65;;;;;;;;;;5069509;28;20523;-71
2023/06/19 13:14:29;;;;;;;8.00;7.20;;;;;;;;;;5073057;28;20185;-71
2023/06/19 13:16:54;;;;;;;9.70;7.68;;;;;;;;;;5070358;28;20556;-71
2023/06/19 13:19:19;;;;;;;10.07;8.55;;;;;;;;;;5078391;28;20263;-71
2023/06/19 13:21:45;;;;;;;10.88;8.35;;;;;;;;;;5073974;28;20276;-71
2023/06/19 13:24:10;;;;;;;10.93;9.00;;;;;;;;;;5075937;28;20184;-71
2023/06/19 13:26:36;;;;;;;12.48;8.82;;;;;;;;;;5081389;28;20231;-71
2023/06/19 13:29:02;;;;;;;12.32;9.73;;;;;;;;;;5081552;28;20321;-71
2023/06/19 13:31:27;;;;;;;10.98;9.77;;;;;;;;;;5075277;28;20639;-71
2023/06/19 13:33:53;;;;;;;10.55;9.45;;;;;;;;;;5075808;28;20678;-71
2023/06/19 13:36:23;;;;;;;9.95;8.90;;;;;;;;;;5074777;28;20222;-70
2023/06/19 13:38:48;;;;;;;14.07;9.85;;;;;;;;;;5076398;28;20627;-72
2023/06/19 13:41:14;;;;;;;11.30;10.15;;;;;;;;;;5076767;28;20196;-72
2023/06/19 13:43:40;;;;;;;11.07;9.82;;;;;;;;;;5086669;28;20231;-70
2023/06/19 13:46:06;;;;;;;14.23;9.65;;;;;;;;;;5071073;28;20208;-71
2023/06/19 13:48:31;;;;;;;11.73;9.60;;;;;;;;;;5075646;28;20188;-71
2023/06/19 13:50:59;;;;;;;10.68;9.45;;;;;;;;;;5074827;28;20196;-70
2023/06/19 13:53:24;;;;;;;12.98;8.80;;;;;;;;;;5084653;28;20195;-71
2023/06/19 13:55:50;;;;;;;9.10;8.30;;;;;;;;;;5060381;28;20185;-71
2023/06/19 13:58:16;;;;;;;11.10;8.25;;;;;;;;;;5073126;28;20184;-71
2023/06/19 14:00:41;;;;;;;11.43;8.35;;;;;;;;;;5083627;28;20804;-71
2023/06/19 14:03:06;;;;;;;9.13;7.95;;;;;;;;;;5080860;28;20314;-71
2023/06/19 14:05:32;;;;;;;9.52;6.75;;;;;;;;;;5075452;28;20577;-70
2023/06/19 14:07:59;;;;;;;8.15;7.18;;;;;;;;;;5084980;28;20192;-71
2023/06/19 14:10:24;;;;;;;8.35;6.80;;;;;;;;;;5081963;28;20666;-71
2023/06/19 14:12:50;;;;;;;8.05;6.75;;;;;;;;;;5084427;28;20184;-71
2023/06/19 14:15:16;;;;;;;10.45;7.80;;;;;;;;;;5064571;28;20188;-71
2023/06/19 14:17:41;;;;;;;9.32;7.47;;;;;;;;;;5082635;28;20297;-70
2023/06/19 14:20:10;;;;;;;10.02;8.00;;;;;;;;;;5081028;28;20267;-70
2023/06/19 14:22:35;;;;;;;10.13;7.82;;;;;;;;;;5082805;28;20648;-69
2023/06/19 14:25:01;;;;;;;8.82;7.82;;;;;;;;;;5082117;28;20195;-70
2023/06/19 14:27:28;;;;;;;8.25;7.40;;;;;;;;;;5086228;28;20280;-71
2023/06/19 14:29:54;;;;;;;8.27;7.47;;;;;;;;;;5085209;28;20196;-71
2023/06/19 14:32:20;;;;;;;9.55;6.50;;;;;;;;;;5080818;28;20219;-71
2023/06/19 14:34:46;;;;;;;8.45;7.55;;;;;;;;;;5071249;28;20696;-71